Time;durP1;ratioP1;P1;durP2;ratioP2;P2;SDS_P1;SDS_P2;PMS_P1;PMS_P2;Temp;Humidity;BMP_temperature;BMP_pressure;BME280_temperature;BME280_humidity;BME280_pressure;Samples;Min_cycle;Max_cycle;Signal;HPM_P1;HPM_P2
2022/05/28 00:01:14;;;;;;;4.30;2.30;;;;;;;;;;5111026;28;20039;-73
2022/05/28 00:03:42;;;;;;;10.13;2.78;;;;;;;;;;5105839;28;20115;-73
2022/05/28 00:06:09;;;;;;;9.23;2.85;;;;;;;;;;5099447;28;20086;-73
2022/05/28 00:08:36;;;;;;;12.55;2.75;;;;;;;;;;5118346;27;20051;-73
2022/05/28 00:11:10;;;;;;;7.07;1.88;;;;;;;;;;5116657;27;20051;-73
2022/05/28 00:13:36;;;;;;;12.40;2.30;;;;;;;;;;5109344;28;20088;-73
2022/05/28 00:16:02;;;;;;;9.40;2.83;;;;;;;;;;5110016;28;20078;-73
2022/05/28 00:18:28;;;;;;;3.63;1.67;;;;;;;;;;5114293;28;20039;-73
2022/05/28 00:20:54;;;;;;;9.88;2.25;;;;;;;;;;5104808;28;20501;-73
2022/05/28 00:23:20;;;;;;;11.15;3.33;;;;;;;;;;5107892;28;20043;-72
2022/05/28 00:25:47;;;;;;;8.52;2.38;;;;;;;;;;5113922;28;20043;-73
2022/05/28 00:28:14;;;;;;;7.25;2.63;;;;;;;;;;5120160;27;20438;-74
2022/05/28 00:30:40;;;;;;;5.18;2.17;;;;;;;;;;5115324;27;20047;-73
2022/05/28 00:33:07;;;;;;;13.45;3.92;;;;;;;;;;5112732;28;20044;-73
2022/05/28 00:35:33;;;;;;;8.02;2.72;;;;;;;;;;5106855;28;20075;-72
2022/05/28 00:37:59;;;;;;;6.38;2.83;;;;;;;;;;5117930;27;20581;-73
2022/05/28 00:40:26;;;;;;;6.50;2.90;;;;;;;;;;5115905;27;20093;-73
2022/05/28 00:42:53;;;;;;;6.03;2.25;;;;;;;;;;5113274;27;20094;-73
2022/05/28 00:45:19;;;;;;;7.10;2.60;;;;;;;;;;5114297;28;20059;-73
2022/05/28 00:47:51;;;;;;;6.90;2.50;;;;;;;;;;5114779;27;20058;-72
2022/05/28 00:50:18;;;;;;;7.38;2.13;;;;;;;;;;5110178;27;20521;-73
2022/05/28 00:52:44;;;;;;;7.47;2.35;;;;;;;;;;5112595;27;20036;-73
2022/05/28 00:55:11;;;;;;;9.57;2.47;;;;;;;;;;5114757;27;20038;-73
2022/05/28 00:57:40;;;;;;;8.68;2.38;;;;;;;;;;5115195;27;20393;-73
2022/05/28 01:00:08;;;;;;;12.18;1.73;;;;;;;;;;5114966;27;20078;-72
2022/05/28 01:02:49;;;;;;;6.82;2.30;;;;;;;;;;5108343;28;20123;-73
2022/05/28 01:05:23;;;;;;;7.78;2.10;;;;;;;;;;5103550;27;20278;-72
2022/05/28 01:08:07;;;;;;;8.35;1.80;;;;;;;;;;5104310;28;20044;-73
2022/05/28 01:10:52;;;;;;;4.00;2.05;;;;;;;;;;5109514;28;20130;-73
2022/05/28 01:13:31;;;;;;;5.55;2.40;;;;;;;;;;5109137;27;20047;-73
2022/05/28 01:16:19;;;;;;;4.55;2.10;;;;;;;;;;5100772;28;20071;-73
2022/05/28 01:18:50;;;;;;;3.83;1.73;;;;;;;;;;5112801;28;20050;-73
2022/05/28 01:21:30;;;;;;;8.60;2.47;;;;;;;;;;5104333;27;20678;-73
2022/05/28 01:24:04;;;;;;;6.15;2.83;;;;;;;;;;5096367;28;20117;-73
2022/05/28 01:26:31;;;;;;;8.52;2.92;;;;;;;;;;5113353;27;20040;-73
2022/05/28 01:29:03;;;;;;;6.78;2.08;;;;;;;;;;5119094;27;20127;-73
2022/05/28 01:31:31;;;;;;;8.88;2.75;;;;;;;;;;5116342;27;20075;-73
2022/05/28 01:33:58;;;;;;;4.60;2.20;;;;;;;;;;5110733;28;20132;-73
2022/05/28 01:36:24;;;;;;;11.02;2.92;;;;;;;;;;5106530;28;20438;-73
2022/05/28 01:38:51;;;;;;;9.65;2.92;;;;;;;;;;5109845;27;20524;-73
2022/05/28 01:41:18;;;;;;;7.32;2.35;;;;;;;;;;5112332;27;20118;-73
2022/05/28 01:43:46;;;;;;;11.15;2.78;;;;;;;;;;5108121;28;20086;-73
2022/05/28 01:46:13;;;;;;;9.40;2.05;;;;;;;;;;5115591;27;20118;-72
2022/05/28 01:48:42;;;;;;;6.35;2.17;;;;;;;;;;5092470;28;20036;-73
2022/05/28 01:51:09;;;;;;;8.68;2.50;;;;;;;;;;5109959;28;20054;-73
2022/05/28 01:56:21;;;;;;;4.97;1.83;;;;;;;;;;5111588;27;20130;-73
2022/05/28 01:58:47;;;;;;;9.07;2.22;;;;;;;;;;5110110;27;20089;-72
2022/05/28 02:01:14;;;;;;;7.20;2.33;;;;;;;;;;5107538;28;20565;-73
2022/05/28 02:03:41;;;;;;;9.45;2.67;;;;;;;;;;5111629;27;20071;-73
2022/05/28 02:06:08;;;;;;;7.93;2.72;;;;;;;;;;5110422;28;20058;-73
2022/05/28 02:08:35;;;;;;;7.35;4.00;;;;;;;;;;5109007;28;20134;-73
2022/05/28 02:11:16;;;;;;;10.65;3.10;;;;;;;;;;5107769;27;20235;-73
2022/05/28 02:14:01;;;;;;;11.55;2.22;;;;;;;;;;5109514;28;20039;-73
2022/05/28 02:16:30;;;;;;;7.80;2.65;;;;;;;;;;5110669;28;20056;-73
2022/05/28 02:18:57;;;;;;;12.27;2.92;;;;;;;;;;5101065;28;20054;-73
2022/05/28 02:21:27;;;;;;;6.95;2.42;;;;;;;;;;5107419;28;20047;-73
2022/05/28 02:23:59;;;;;;;12.10;3.38;;;;;;;;;;5100873;28;20070;-73
2022/05/28 02:26:31;;;;;;;10.65;3.00;;;;;;;;;;5089773;28;20071;-73
2022/05/28 02:28:59;;;;;;;33.60;4.03;;;;;;;;;;5108372;27;20050;-73
2022/05/28 02:31:27;;;;;;;8.77;2.30;;;;;;;;;;5109454;28;20554;-73
2022/05/28 02:33:54;;;;;;;8.82;3.13;;;;;;;;;;5110410;27;20134;-73
2022/05/28 02:36:20;;;;;;;10.60;3.63;;;;;;;;;;5111927;27;20512;-73
2022/05/28 02:38:46;;;;;;;12.35;2.95;;;;;;;;;;5107948;27;20043;-72
2022/05/28 02:41:12;;;;;;;11.27;2.95;;;;;;;;;;5104313;27;20039;-73
2022/05/28 02:43:39;;;;;;;8.25;2.78;;;;;;;;;;5103364;27;20071;-73
2022/05/28 02:46:05;;;;;;;7.57;2.95;;;;;;;;;;5089052;28;20084;-73
2022/05/28 02:48:32;;;;;;;6.65;2.65;;;;;;;;;;5111151;27;20048;-73
2022/05/28 02:51:05;;;;;;;10.00;3.10;;;;;;;;;;5086339;28;20048;-73
2022/05/28 02:53:32;;;;;;;9.68;3.10;;;;;;;;;;5106951;27;20039;-73
2022/05/28 02:55:58;;;;;;;8.98;3.28;;;;;;;;;;5107784;27;20531;-73
2022/05/28 02:58:24;;;;;;;9.93;3.25;;;;;;;;;;5114740;27;20602;-73
2022/05/28 03:00:51;;;;;;;8.75;3.95;;;;;;;;;;5110274;28;20035;-73
2022/05/28 03:03:19;;;;;;;9.55;3.20;;;;;;;;;;5114571;27;20115;-72
2022/05/28 03:05:47;;;;;;;9.93;3.38;;;;;;;;;;5101060;28;20048;-73
2022/05/28 03:08:13;;;;;;;7.00;2.47;;;;;;;;;;5108387;28;20145;-73
2022/05/28 03:10:39;;;;;;;17.05;4.40;;;;;;;;;;5097636;28;20078;-74
2022/05/28 03:13:06;;;;;;;5.00;2.25;;;;;;;;;;5103097;28;20102;-73
2022/05/28 03:15:33;;;;;;;8.52;3.03;;;;;;;;;;5080611;28;20044;-73
2022/05/28 03:18:02;;;;;;;8.35;2.63;;;;;;;;;;5086663;28;20035;-73
2022/05/28 03:20:28;;;;;;;8.27;3.40;;;;;;;;;;5105529;27;20503;-72
2022/05/28 03:22:55;;;;;;;14.60;2.97;;;;;;;;;;5113001;27;20444;-73
2022/05/28 03:25:21;;;;;;;9.07;3.35;;;;;;;;;;5101899;27;20047;-72
2022/05/28 03:27:47;;;;;;;17.67;4.43;;;;;;;;;;5119804;27;20036;-72
2022/05/28 03:30:14;;;;;;;8.20;2.88;;;;;;;;;;5103838;28;20040;-73
2022/05/28 03:32:40;;;;;;;7.82;2.95;;;;;;;;;;5105173;27;20077;-73
2022/05/28 03:35:07;;;;;;;6.43;3.45;;;;;;;;;;5103651;27;20046;-73
2022/05/28 03:37:33;;;;;;;13.90;3.55;;;;;;;;;;5109196;28;20044;-73
2022/05/28 03:39:59;;;;;;;11.48;4.82;;;;;;;;;;5107418;28;20168;-73
2022/05/28 03:42:25;;;;;;;12.05;2.97;;;;;;;;;;5103754;28;20028;-73
2022/05/28 03:44:51;;;;;;;16.38;3.78;;;;;;;;;;5104269;28;20046;-73
2022/05/28 03:47:18;;;;;;;6.38;3.00;;;;;;;;;;5107543;27;20122;-72
2022/05/28 03:49:44;;;;;;;10.73;3.42;;;;;;;;;;5100600;28;20538;-72
2022/05/28 03:52:11;;;;;;;9.90;3.17;;;;;;;;;;5100895;28;20081;-73
2022/05/28 03:54:43;;;;;;;13.23;3.13;;;;;;;;;;5113410;28;20043;-73
2022/05/28 03:57:12;;;;;;;16.17;3.47;;;;;;;;;;5089747;28;20039;-72
2022/05/28 03:59:38;;;;;;;6.30;3.40;;;;;;;;;;5105833;28;20409;-73
2022/05/28 04:02:04;;;;;;;10.15;3.83;;;;;;;;;;5101969;28;20035;-72
2022/05/28 04:04:33;;;;;;;13.15;3.35;;;;;;;;;;5119112;27;20039;-72
2022/05/28 04:07:00;;;;;;;7.25;3.47;;;;;;;;;;5099873;27;20083;-73
2022/05/28 04:09:27;;;;;;;7.47;3.20;;;;;;;;;;5105757;27;20044;-73
2022/05/28 04:11:53;;;;;;;9.55;3.33;;;;;;;;;;5110205;27;20422;-73
2022/05/28 04:14:19;;;;;;;10.90;4.10;;;;;;;;;;5106279;28;20040;-72
2022/05/28 04:16:46;;;;;;;8.98;3.10;;;;;;;;;;5111647;28;20126;-72
2022/05/28 04:19:13;;;;;;;12.40;3.83;;;;;;;;;;5107356;28;20040;-73
2022/05/28 04:21:39;;;;;;;14.52;3.50;;;;;;;;;;5112268;27;20027;-73
2022/05/28 04:24:06;;;;;;;13.07;3.55;;;;;;;;;;5115798;27;20060;-73
2022/05/28 04:26:32;;;;;;;11.77;3.47;;;;;;;;;;5115356;27;20042;-73
2022/05/28 04:28:58;;;;;;;11.32;3.60;;;;;;;;;;5105459;28;20119;-73
2022/05/28 04:31:24;;;;;;;14.60;3.92;;;;;;;;;;5102030;28;20462;-73
2022/05/28 04:33:50;;;;;;;9.02;3.50;;;;;;;;;;5097743;27;20117;-73
2022/05/28 04:36:17;;;;;;;7.60;3.50;;;;;;;;;;5124149;27;20443;-73
2022/05/28 04:38:43;;;;;;;10.55;3.50;;;;;;;;;;5105756;27;20039;-73
2022/05/28 04:41:10;;;;;;;11.98;3.90;;;;;;;;;;5111478;28;20046;-73
2022/05/28 04:43:36;;;;;;;12.20;3.38;;;;;;;;;;5112625;27;20081;-73
2022/05/28 04:46:02;;;;;;;11.55;3.13;;;;;;;;;;5107493;28;20039;-73
2022/05/28 04:48:28;;;;;;;7.93;3.42;;;;;;;;;;5104660;28;20123;-73
2022/05/28 04:50:55;;;;;;;8.82;3.58;;;;;;;;;;5110487;28;20035;-73
2022/05/28 04:53:21;;;;;;;11.88;4.78;;;;;;;;;;5115851;27;20127;-73
2022/05/28 04:55:47;;;;;;;11.68;3.03;;;;;;;;;;5106284;27;20074;-73
2022/05/28 04:58:14;;;;;;;10.60;2.88;;;;;;;;;;5103621;28;20109;-73
2022/05/28 05:00:41;;;;;;;10.73;3.47;;;;;;;;;;5111760;27;21219;-72
2022/05/28 05:03:07;;;;;;;14.13;4.32;;;;;;;;;;5107486;28;20052;-72
2022/05/28 05:05:33;;;;;;;10.07;3.38;;;;;;;;;;5106903;28;20052;-73
2022/05/28 05:08:00;;;;;;;10.10;3.50;;;;;;;;;;5103010;27;20047;-73
2022/05/28 05:10:26;;;;;;;17.00;4.28;;;;;;;;;;5105638;27;20124;-73
2022/05/28 05:12:52;;;;;;;13.23;3.92;;;;;;;;;;5107063;28;20779;-73
2022/05/28 05:15:18;;;;;;;11.15;3.13;;;;;;;;;;5113487;27;20047;-73
2022/05/28 05:17:45;;;;;;;7.05;3.03;;;;;;;;;;5102415;27;20270;-73
2022/05/28 05:20:12;;;;;;;7.45;3.50;;;;;;;;;;5100791;27;20032;-73
2022/05/28 05:22:38;;;;;;;6.25;1.88;;;;;;;;;;5107950;27;20043;-73
2022/05/28 05:25:05;;;;;;;5.82;2.38;;;;;;;;;;5104755;28;20027;-73
2022/05/28 05:27:31;;;;;;;9.45;3.03;;;;;;;;;;5106551;28;20073;-73
2022/05/28 05:29:57;;;;;;;10.75;2.97;;;;;;;;;;5111048;27;20071;-72
2022/05/28 05:32:24;;;;;;;10.80;3.35;;;;;;;;;;5102261;28;20572;-73
2022/05/28 05:34:51;;;;;;;5.20;2.58;;;;;;;;;;5102515;27;20089;-73
2022/05/28 05:37:17;;;;;;;7.75;2.85;;;;;;;;;;5106819;28;20040;-73
2022/05/28 05:39:43;;;;;;;12.13;3.65;;;;;;;;;;5107879;27;20047;-73
2022/05/28 05:42:10;;;;;;;6.97;2.83;;;;;;;;;;5069972;28;20112;-73
2022/05/28 05:44:37;;;;;;;11.68;3.50;;;;;;;;;;5105719;28;20493;-73
2022/05/28 05:47:04;;;;;;;13.20;3.10;;;;;;;;;;5101863;28;20118;-73
2022/05/28 05:49:30;;;;;;;10.77;3.65;;;;;;;;;;5106063;27;20040;-73
2022/05/28 05:51:56;;;;;;;9.45;4.03;;;;;;;;;;5103890;27;20112;-73
2022/05/28 05:54:26;;;;;;;12.38;3.72;;;;;;;;;;5110269;27;20042;-72
2022/05/28 05:56:55;;;;;;;16.38;4.38;;;;;;;;;;5108412;28;20428;-73
2022/05/28 05:59:24;;;;;;;11.13;3.88;;;;;;;;;;5108994;27;20032;-73
2022/05/28 06:01:51;;;;;;;15.65;3.95;;;;;;;;;;5070271;28;20501;-73
2022/05/28 06:04:17;;;;;;;8.40;3.78;;;;;;;;;;5097851;27;20031;-73
2022/05/28 06:06:44;;;;;;;9.52;4.05;;;;;;;;;;5098682;27;20048;-73
2022/05/28 06:09:10;;;;;;;14.88;4.57;;;;;;;;;;5090439;27;20044;-73
2022/05/28 06:11:37;;;;;;;14.50;5.15;;;;;;;;;;5096812;27;20043;-73
2022/05/28 06:14:04;;;;;;;11.10;3.35;;;;;;;;;;5097869;27;20128;-73
2022/05/28 06:16:30;;;;;;;11.00;4.32;;;;;;;;;;5102251;27;20230;-73
2022/05/28 06:18:56;;;;;;;9.95;3.67;;;;;;;;;;5098688;27;20250;-74
2022/05/28 06:21:23;;;;;;;11.90;3.58;;;;;;;;;;5100707;28;20039;-73
2022/05/28 06:23:49;;;;;;;13.38;4.53;;;;;;;;;;5098831;28;20039;-74
2022/05/28 06:26:15;;;;;;;9.65;4.10;;;;;;;;;;5099761;28;20390;-73
2022/05/28 06:28:41;;;;;;;9.88;4.10;;;;;;;;;;5095945;28;20036;-73
2022/05/28 06:31:09;;;;;;;15.10;3.75;;;;;;;;;;5110440;28;20493;-74
2022/05/28 06:33:36;;;;;;;24.70;5.35;;;;;;;;;;5105952;28;20041;-73
2022/05/28 06:36:04;;;;;;;9.82;4.53;;;;;;;;;;5084958;28;20043;-72
2022/05/28 06:38:30;;;;;;;15.90;4.18;;;;;;;;;;5104302;27;20302;-74
2022/05/28 06:40:56;;;;;;;9.57;4.10;;;;;;;;;;5100477;28;20046;-73
2022/05/28 06:43:23;;;;;;;13.75;3.92;;;;;;;;;;5082965;27;20036;-73
2022/05/28 06:45:49;;;;;;;11.40;4.85;;;;;;;;;;5100142;27;20031;-73
2022/05/28 06:48:16;;;;;;;10.20;3.83;;;;;;;;;;5095865;28;20463;-74
2022/05/28 06:51:02;;;;;;;14.25;4.38;;;;;;;;;;5089364;28;20032;-74
2022/05/28 06:53:38;;;;;;;7.70;3.53;;;;;;;;;;5070089;28;20586;-73
2022/05/28 06:56:06;;;;;;;9.80;4.22;;;;;;;;;;5096335;27;20031;-73
2022/05/28 06:58:32;;;;;;;10.00;3.65;;;;;;;;;;5100734;28;20039;-74
2022/05/28 07:00:59;;;;;;;13.00;4.18;;;;;;;;;;5093865;28;20506;-74
2022/05/28 07:03:27;;;;;;;11.45;4.82;;;;;;;;;;5097311;27;20039;-74
2022/05/28 07:05:53;;;;;;;14.38;3.75;;;;;;;;;;5097508;28;20489;-74
2022/05/28 07:08:20;;;;;;;13.75;4.60;;;;;;;;;;5080033;28;20031;-74
2022/05/28 07:10:47;;;;;;;14.90;4.78;;;;;;;;;;5096024;27;20105;-74
2022/05/28 07:13:13;;;;;;;9.48;3.67;;;;;;;;;;5097698;28;20058;-74
2022/05/28 07:15:40;;;;;;;7.43;3.03;;;;;;;;;;5098114;27;20435;-73
2022/05/28 07:18:06;;;;;;;13.50;4.22;;;;;;;;;;5098536;28;20534;-74
2022/05/28 07:20:32;;;;;;;12.82;4.45;;;;;;;;;;5099022;27;20067;-73
2022/05/28 07:22:59;;;;;;;9.93;4.28;;;;;;;;;;5114210;27;20529;-74
2022/05/28 07:25:25;;;;;;;11.65;3.97;;;;;;;;;;5106427;28;20567;-73
2022/05/28 07:27:51;;;;;;;11.05;3.28;;;;;;;;;;5105697;28;20112;-73
2022/05/28 07:30:17;;;;;;;7.10;3.05;;;;;;;;;;5103267;28;20104;-74
2022/05/28 07:32:43;;;;;;;14.77;4.03;;;;;;;;;;5108345;27;20047;-74
2022/05/28 07:35:11;;;;;;;15.15;4.13;;;;;;;;;;5106341;28;20051;-74
2022/05/28 07:37:37;;;;;;;15.00;4.18;;;;;;;;;;5094807;28;20370;-73
2022/05/28 07:40:03;;;;;;;11.02;4.20;;;;;;;;;;5106826;28;20106;-74
2022/05/28 07:42:29;;;;;;;11.60;3.85;;;;;;;;;;5099707;28;20036;-74
2022/05/28 07:44:56;;;;;;;13.77;3.92;;;;;;;;;;5093840;28;20059;-74
2022/05/28 07:47:22;;;;;;;13.95;3.70;;;;;;;;;;5106314;28;20082;-73
2022/05/28 07:49:48;;;;;;;10.77;3.28;;;;;;;;;;5099026;28;20035;-73
2022/05/28 07:52:14;;;;;;;8.85;3.70;;;;;;;;;;5100828;28;20032;-73
2022/05/28 07:54:41;;;;;;;14.50;4.05;;;;;;;;;;5102513;28;20039;-73
2022/05/28 07:57:07;;;;;;;13.07;4.03;;;;;;;;;;5106424;28;20047;-75
2022/05/28 07:59:36;;;;;;;9.25;3.50;;;;;;;;;;5105048;28;20513;-73
2022/05/28 08:02:02;;;;;;;23.42;4.80;;;;;;;;;;5103479;28;20118;-74
2022/05/28 08:04:29;;;;;;;12.73;3.75;;;;;;;;;;5095909;28;20039;-73
2022/05/28 08:06:56;;;;;;;11.45;3.80;;;;;;;;;;5106359;28;20050;-72
2022/05/28 08:09:23;;;;;;;7.50;3.42;;;;;;;;;;5107813;28;20074;-74
2022/05/28 08:11:49;;;;;;;15.15;4.05;;;;;;;;;;5111018;28;20040;-74
2022/05/28 08:14:15;;;;;;;9.55;4.03;;;;;;;;;;5110158;28;20032;-74
2022/05/28 08:16:41;;;;;;;12.63;4.15;;;;;;;;;;5103936;28;20036;-74
2022/05/28 08:19:07;;;;;;;10.68;4.10;;;;;;;;;;5105521;28;20047;-74
2022/05/28 08:24:19;;;;;;;14.13;3.55;;;;;;;;;;5103090;28;20032;-74
2022/05/28 08:26:46;;;;;;;12.80;3.88;;;;;;;;;;5104845;28;20035;-74
2022/05/28 08:29:12;;;;;;;8.48;3.75;;;;;;;;;;5094987;28;20096;-73
2022/05/28 08:31:39;;;;;;;10.38;4.10;;;;;;;;;;5107888;28;20048;-74
2022/05/28 08:34:05;;;;;;;10.93;4.25;;;;;;;;;;5084325;28;20051;-74
2022/05/28 08:36:31;;;;;;;8.80;3.53;;;;;;;;;;5107086;28;20093;-74
2022/05/28 08:38:57;;;;;;;7.47;3.13;;;;;;;;;;5108572;28;20062;-74
2022/05/28 08:41:26;;;;;;;10.35;4.50;;;;;;;;;;5104491;28;20123;-74
2022/05/28 08:44:11;;;;;;;7.32;3.20;;;;;;;;;;5107221;28;20504;-74
2022/05/28 08:46:37;;;;;;;8.88;2.85;;;;;;;;;;5105618;28;20035;-74
2022/05/28 08:49:05;;;;;;;12.90;3.50;;;;;;;;;;5108988;28;20039;-74
2022/05/28 08:51:37;;;;;;;10.30;3.67;;;;;;;;;;5110490;28;20122;-74
2022/05/28 08:54:18;;;;;;;8.18;3.25;;;;;;;;;;5108214;28;20078;-74
2022/05/28 08:56:45;;;;;;;12.50;3.78;;;;;;;;;;5110585;27;20043;-74
2022/05/28 08:59:15;;;;;;;10.38;4.38;;;;;;;;;;5105810;27;20039;-74
2022/05/28 09:01:44;;;;;;;14.07;3.95;;;;;;;;;;5110278;27;20512;-74
2022/05/28 09:04:12;;;;;;;14.80;4.28;;;;;;;;;;5104094;27;20126;-74
2022/05/28 09:06:44;;;;;;;9.88;3.25;;;;;;;;;;5109124;28;20079;-74
2022/05/28 09:09:13;;;;;;;15.95;3.83;;;;;;;;;;5112136;27;20043;-74
2022/05/28 09:11:52;;;;;;;14.27;3.55;;;;;;;;;;5110535;28;20088;-75
2022/05/28 09:14:22;;;;;;;10.32;3.35;;;;;;;;;;5102100;28;20040;-74
2022/05/28 09:16:49;;;;;;;7.90;3.40;;;;;;;;;;5106536;27;20039;-74
2022/05/28 09:19:20;;;;;;;8.02;3.58;;;;;;;;;;5113129;27;20378;-74
2022/05/28 09:21:46;;;;;;;12.93;3.60;;;;;;;;;;5109774;28;20122;-74
2022/05/28 09:24:23;;;;;;;10.85;4.03;;;;;;;;;;5103689;28;20043;-75
2022/05/28 09:26:50;;;;;;;11.77;3.95;;;;;;;;;;5104666;27;20258;-74
2022/05/28 09:29:25;;;;;;;14.35;4.68;;;;;;;;;;5105797;27;20438;-74
2022/05/28 09:31:59;;;;;;;8.93;3.00;;;;;;;;;;5109134;27;20040;-74
2022/05/28 09:34:45;;;;;;;7.60;3.13;;;;;;;;;;5110802;28;20042;-74
2022/05/28 09:37:26;;;;;;;13.93;3.58;;;;;;;;;;5076059;28;20089;-75
2022/05/28 09:40:11;;;;;;;8.45;3.22;;;;;;;;;;5107318;28;20417;-74
2022/05/28 09:42:40;;;;;;;15.15;4.03;;;;;;;;;;5107080;28;20051;-74
2022/05/28 09:45:33;;;;;;;10.25;4.13;;;;;;;;;;5109431;27;20040;-73
2022/05/28 09:48:00;;;;;;;10.02;3.47;;;;;;;;;;5108158;28;20077;-74
2022/05/28 09:50:44;;;;;;;9.43;3.42;;;;;;;;;;5108728;28;20039;-74
2022/05/28 09:56:23;;;;;;;10.63;3.25;;;;;;;;;;5104552;28;20047;-74
2022/05/28 09:58:49;;;;;;;11.87;3.67;;;;;;;;;;5093944;27;20503;-74
2022/05/28 10:01:21;;;;;;;9.13;3.92;;;;;;;;;;5106058;28;20046;-74
2022/05/28 10:06:33;;;;;;;7.47;3.47;;;;;;;;;;5109818;27;20047;-74
2022/05/28 10:09:12;;;;;;;9.48;3.28;;;;;;;;;;5104610;27;20055;-74
2022/05/28 10:11:48;;;;;;;10.05;2.70;;;;;;;;;;5106232;27;20149;-74
2022/05/28 10:14:16;;;;;;;11.60;4.00;;;;;;;;;;5104861;28;20051;-74
2022/05/28 10:16:46;;;;;;;10.93;3.90;;;;;;;;;;5100737;27;20371;-74
2022/05/28 10:19:25;;;;;;;17.05;5.25;;;;;;;;;;5110520;27;20135;-74
2022/05/28 10:21:53;;;;;;;10.95;3.28;;;;;;;;;;5107674;28;20039;-74
2022/05/28 10:24:21;;;;;;;15.07;3.42;;;;;;;;;;5111006;27;20054;-75
2022/05/28 10:26:53;;;;;;;10.10;4.25;;;;;;;;;;5109467;28;20048;-74
2022/05/28 10:29:36;;;;;;;11.88;3.83;;;;;;;;;;5111433;28;20039;-74
2022/05/28 10:32:02;;;;;;;18.67;3.92;;;;;;;;;;5105725;28;20062;-74
2022/05/28 10:34:31;;;;;;;11.35;4.00;;;;;;;;;;5107468;28;20031;-74
2022/05/28 10:37:18;;;;;;;5.68;3.40;;;;;;;;;;5106630;28;20508;-73
2022/05/28 10:39:44;;;;;;;13.85;3.90;;;;;;;;;;5106093;27;20127;-74
2022/05/28 10:42:12;;;;;;;9.68;3.28;;;;;;;;;;5104742;27;20417;-74
2022/05/28 10:44:39;;;;;;;12.50;3.22;;;;;;;;;;5105866;27;20040;-74
2022/05/28 10:47:09;;;;;;;7.80;3.00;;;;;;;;;;5105810;27;20521;-74
2022/05/28 10:49:41;;;;;;;10.85;3.55;;;;;;;;;;5104517;27;20043;-74
2022/05/28 10:52:13;;;;;;;8.10;2.90;;;;;;;;;;5102524;27;20039;-74
2022/05/28 10:54:46;;;;;;;6.85;3.50;;;;;;;;;;5100747;28;20041;-74
2022/05/28 10:57:15;;;;;;;11.05;3.22;;;;;;;;;;5105477;27;20405;-74
2022/05/28 10:59:58;;;;;;;12.57;4.65;;;;;;;;;;5100831;27;20035;-74
2022/05/28 11:02:44;;;;;;;10.25;3.50;;;;;;;;;;5109991;27;20066;-74
2022/05/28 11:05:25;;;;;;;20.88;5.35;;;;;;;;;;5103831;28;20089;-74
2022/05/28 11:07:53;;;;;;;11.02;4.63;;;;;;;;;;5108479;27;20043;-74
2022/05/28 11:10:42;;;;;;;11.23;3.30;;;;;;;;;;5108063;28;20160;-74
2022/05/28 11:13:17;;;;;;;9.98;2.85;;;;;;;;;;5096168;28;20082;-74
2022/05/28 11:16:02;;;;;;;13.18;3.03;;;;;;;;;;5100204;28;20591;-74
2022/05/28 11:18:45;;;;;;;7.25;2.42;;;;;;;;;;5104933;28;20036;-74
2022/05/28 11:21:25;;;;;;;8.82;2.38;;;;;;;;;;5104759;27;20039;-74
2022/05/28 11:23:54;;;;;;;8.60;2.13;;;;;;;;;;5096860;27;20032;-74
2022/05/28 11:26:26;;;;;;;10.98;2.60;;;;;;;;;;5105780;28;20396;-74
2022/05/28 11:29:08;;;;;;;6.57;2.20;;;;;;;;;;5094387;28;20433;-74
2022/05/28 11:31:41;;;;;;;7.63;3.95;;;;;;;;;;5093919;28;20156;-74
2022/05/28 11:34:21;;;;;;;9.30;3.05;;;;;;;;;;5105813;27;20032;-74
2022/05/28 11:36:59;;;;;;;6.35;2.40;;;;;;;;;;5106634;28;20047;-74
2022/05/28 11:39:28;;;;;;;9.27;2.50;;;;;;;;;;5099118;28;20188;-74
2022/05/28 11:41:54;;;;;;;9.80;3.15;;;;;;;;;;5107565;28;20044;-75
2022/05/28 11:44:23;;;;;;;8.77;2.67;;;;;;;;;;5105857;28;20032;-74
2022/05/28 11:46:57;;;;;;;10.50;3.10;;;;;;;;;;5110309;28;20054;-74
2022/05/28 11:52:22;;;;;;;14.27;4.55;;;;;;;;;;5102921;28;20047;-75
2022/05/28 11:54:57;;;;;;;9.30;2.88;;;;;;;;;;5098327;28;20039;-74
2022/05/28 11:57:28;;;;;;;13.63;3.08;;;;;;;;;;5099345;28;20083;-71
2022/05/28 11:59:56;;;;;;;8.80;3.50;;;;;;;;;;5091123;28;20066;-71
2022/05/28 12:02:24;;;;;;;12.65;3.30;;;;;;;;;;5105402;28;20042;-71
2022/05/28 12:04:51;;;;;;;6.18;2.97;;;;;;;;;;5105352;28;20055;-71
2022/05/28 12:07:23;;;;;;;9.88;3.55;;;;;;;;;;5106939;28;20058;-72
2022/05/28 12:09:49;;;;;;;7.85;3.60;;;;;;;;;;5088873;28;20104;-71
2022/05/28 12:12:22;;;;;;;18.55;3.72;;;;;;;;;;5102563;28;20451;-71
2022/05/28 12:15:07;;;;;;;6.03;2.38;;;;;;;;;;5100512;28;20044;-72
2022/05/28 12:17:33;;;;;;;9.10;3.35;;;;;;;;;;5111483;28;20043;-72
2022/05/28 12:20:00;;;;;;;7.90;3.70;;;;;;;;;;5105950;28;20027;-71
2022/05/28 12:22:33;;;;;;;6.07;2.30;;;;;;;;;;5107644;28;20062;-72
2022/05/28 12:25:15;;;;;;;8.23;2.38;;;;;;;;;;5107545;27;20042;-71
2022/05/28 12:27:46;;;;;;;5.85;2.08;;;;;;;;;;5119081;27;20082;-72
2022/05/28 12:30:24;;;;;;;6.57;2.78;;;;;;;;;;5106927;28;20032;-71
2022/05/28 12:32:51;;;;;;;4.43;1.98;;;;;;;;;;5108737;28;20043;-72
2022/05/28 12:35:20;;;;;;;10.07;3.67;;;;;;;;;;5105221;27;20448;-75
2022/05/28 12:37:51;;;;;;;10.02;2.50;;;;;;;;;;5110454;28;20075;-75
2022/05/28 12:40:40;;;;;;;7.68;2.22;;;;;;;;;;5112400;28;20589;-75
2022/05/28 12:43:45;;;;;;;7.20;2.05;;;;;;;;;;5116961;27;20575;-75
2022/05/28 12:46:18;;;;;;;4.97;2.50;;;;;;;;;;5065185;28;20029;-75
2022/05/28 12:48:45;;;;;;;7.32;2.17;;;;;;;;;;5062643;28;20098;-75
2022/05/28 12:51:24;;;;;;;9.10;2.63;;;;;;;;;;5086273;28;20044;-75
2022/05/28 12:53:50;;;;;;;5.82;2.72;;;;;;;;;;5112381;27;20039;-75
2022/05/28 12:56:38;;;;;;;11.25;2.50;;;;;;;;;;5109459;28;20088;-74
2022/05/28 12:59:10;;;;;;;7.95;3.35;;;;;;;;;;5091541;27;20044;-75
2022/05/28 13:01:37;;;;;;;8.18;1.95;;;;;;;;;;5113513;27;20039;-75
2022/05/28 13:04:07;;;;;;;14.82;3.08;;;;;;;;;;5109079;27;20043;-75
2022/05/28 13:06:39;;;;;;;4.95;2.15;;;;;;;;;;5106614;27;20063;-75
2022/05/28 13:09:07;;;;;;;7.67;2.83;;;;;;;;;;5109594;27;20083;-74
2022/05/28 13:11:36;;;;;;;6.50;2.72;;;;;;;;;;5111443;27;20315;-74
2022/05/28 13:14:21;;;;;;;6.22;3.00;;;;;;;;;;5115081;27;20047;-75
2022/05/28 13:17:06;;;;;;;18.25;3.20;;;;;;;;;;5100917;27;20570;-75
2022/05/28 13:19:32;;;;;;;13.63;2.63;;;;;;;;;;5109360;27;20048;-74
2022/05/28 13:21:59;;;;;;;8.35;2.72;;;;;;;;;;5105568;28;20507;-75
2022/05/28 13:24:43;;;;;;;9.13;4.43;;;;;;;;;;5104078;27;20413;-77
2022/05/28 13:27:09;;;;;;;8.45;2.63;;;;;;;;;;5113623;27;20038;-78
2022/05/28 13:29:48;;;;;;;7.82;2.60;;;;;;;;;;5107220;27;20039;-75
2022/05/28 13:32:20;;;;;;;4.45;2.22;;;;;;;;;;5107878;27;20493;-78
2022/05/28 13:34:46;;;;;;;5.30;2.10;;;;;;;;;;5100556;27;20477;-70
2022/05/28 13:37:17;;;;;;;11.40;2.42;;;;;;;;;;5075905;28;20439;-73
2022/05/28 13:39:47;;;;;;;9.65;2.10;;;;;;;;;;5102771;27;20061;-74
2022/05/28 13:42:18;;;;;;;8.82;3.05;;;;;;;;;;5096930;27;20375;-68
2022/05/28 13:44:47;;;;;;;5.38;1.95;;;;;;;;;;5095549;27;20028;-70
2022/05/28 13:47:15;;;;;;;9.10;2.20;;;;;;;;;;5101357;27;20027;-71
2022/05/28 13:49:42;;;;;;;8.43;2.47;;;;;;;;;;5108820;27;20039;-70
2022/05/28 13:52:11;;;;;;;3.65;2.22;;;;;;;;;;5106476;28;20101;-69
2022/05/28 13:54:37;;;;;;;11.30;2.45;;;;;;;;;;5105485;27;20126;-70
2022/05/28 13:57:05;;;;;;;7.25;2.75;;;;;;;;;;5101011;27;20040;-70
2022/05/28 13:59:34;;;;;;;5.15;2.20;;;;;;;;;;5104943;28;20078;-69
2022/05/28 14:02:00;;;;;;;7.35;2.40;;;;;;;;;;5102052;27;20119;-69
2022/05/28 14:04:30;;;;;;;7.90;3.22;;;;;;;;;;5104306;27;20031;-69
2022/05/28 14:06:59;;;;;;;5.47;2.50;;;;;;;;;;5094919;27;20035;-70
2022/05/28 14:09:33;;;;;;;7.40;2.50;;;;;;;;;;5099451;27;20043;-69
2022/05/28 14:12:01;;;;;;;7.53;2.17;;;;;;;;;;5106549;27;20039;-70
2022/05/28 14:14:28;;;;;;;8.68;2.33;;;;;;;;;;5097698;27;20040;-69
2022/05/28 14:16:57;;;;;;;5.75;2.25;;;;;;;;;;5073181;28;20288;-70
2022/05/28 14:19:32;;;;;;;3.50;1.67;;;;;;;;;;5099149;28;20097;-69
2022/05/28 14:22:02;;;;;;;5.57;2.10;;;;;;;;;;5104571;27;20031;-69
2022/05/28 14:24:30;;;;;;;4.82;1.65;;;;;;;;;;5094590;27;20047;-70
2022/05/28 14:27:01;;;;;;;3.70;1.80;;;;;;;;;;5109820;28;20043;-70
2022/05/28 14:29:30;;;;;;;6.72;2.20;;;;;;;;;;5108431;28;20040;-70
2022/05/28 14:31:57;;;;;;;8.32;1.90;;;;;;;;;;5102318;27;20040;-69
2022/05/28 14:34:25;;;;;;;6.88;2.90;;;;;;;;;;5109636;28;20118;-69
2022/05/28 14:36:56;;;;;;;6.85;2.42;;;;;;;;;;5109833;27;20435;-70
2022/05/28 14:39:23;;;;;;;6.18;2.08;;;;;;;;;;5108218;28;20048;-70
2022/05/28 14:42:05;;;;;;;4.90;2.13;;;;;;;;;;5106341;28;20082;-70
2022/05/28 14:44:34;;;;;;;8.93;3.28;;;;;;;;;;5107204;28;20039;-69
2022/05/28 14:47:00;;;;;;;6.32;2.40;;;;;;;;;;5107929;27;20554;-64
2022/05/28 14:49:29;;;;;;;7.80;2.70;;;;;;;;;;5098750;27;20404;-68
2022/05/28 14:52:00;;;;;;;5.82;1.73;;;;;;;;;;5094184;27;20493;-68
2022/05/28 14:54:29;;;;;;;8.15;2.17;;;;;;;;;;5092791;27;20465;-68
2022/05/28 14:56:56;;;;;;;6.05;2.55;;;;;;;;;;5092494;28;20043;-67
2022/05/28 14:59:34;;;;;;;11.55;2.85;;;;;;;;;;5095720;27;20130;-67
2022/05/28 15:02:10;;;;;;;13.43;2.33;;;;;;;;;;5106870;28;20535;-67
2022/05/28 15:04:36;;;;;;;5.57;2.88;;;;;;;;;;5110669;27;20039;-67
2022/05/28 15:07:06;;;;;;;9.85;2.70;;;;;;;;;;5109473;27;20056;-68